sensor_id;sensor_type;location;lat;lon;timestamp;P1;durP1;ratioP1;P2;durP2;ratioP2
9178;SDS011;4624;48.126;11.546;2023-03-01T00:00:02;14.80;;;10.67;;
9178;SDS011;4624;48.126;11.546;2023-03-01T00:02:29;15.37;;;10.97;;
9178;SDS011;4624;48.126;11.546;2023-03-01T00:04:56;15.03;;;10.67;;
9178;SDS011;4624;48.126;11.546;2023-03-01T00:07:23;13.03;;;10.33;;
9178;SDS011;4624;48.126;11.546;2023-03-01T00:09:49;13.77;;;10.23;;
9178;SDS011;4624;48.126;11.546;2023-03-01T00:12:17;12.60;;;10.37;;
9178;SDS011;4624;48.126;11.546;2023-03-01T00:14:44;16.80;;;10.87;;
9178;SDS011;4624;48.126;11.546;2023-03-01T00:17:11;14.40;;;10.50;;
9178;SDS011;4624;48.126;11.546;2023-03-01T00:19:38;14.20;;;10.83;;
9178;SDS011;4624;48.126;11.546;2023-03-01T00:22:05;13.80;;;10.93;;
9178;SDS011;4624;48.126;11.546;2023-03-01T00:24:32;13.40;;;10.10;;
9178;SDS011;4624;48.126;11.546;2023-03-01T00:26:58;16.40;;;11.27;;
9178;SDS011;4624;48.126;11.546;2023-03-01T00:29:26;13.17;;;10.20;;
9178;SDS011;4624;48.126;11.546;2023-03-01T00:31:53;16.23;;;11.07;;
9178;SDS011;4624;48.126;11.546;2023-03-01T00:34:20;13.90;;;10.83;;
9178;SDS011;4624;48.126;11.546;2023-03-01T00:36:47;13.60;;;10.70;;
9178;SDS011;4624;48.126;11.546;2023-03-01T00:39:14;15.70;;;10.57;;
9178;SDS011;4624;48.126;11.546;2023-03-01T00:41:41;12.70;;;10.53;;
9178;SDS011;4624;48.126;11.546;2023-03-01T00:44:09;13.20;;;10.53;;
9178;SDS011;4624;48.126;11.546;2023-03-01T00:46:38;13.03;;;10.03;;
9178;SDS011;4624;48.126;11.546;2023-03-01T00:49:05;14.20;;;11.83;;
9178;SDS011;4624;48.126;11.546;2023-03-01T00:51:31;13.50;;;10.63;;
9178;SDS011;4624;48.126;11.546;2023-03-01T00:53:59;14.20;;;10.33;;
9178;SDS011;4624;48.126;11.546;2023-03-01T00:56:27;12.37;;;9.87;;
9178;SDS011;4624;48.126;11.546;2023-03-01T00:58:54;14.03;;;11.10;;
9178;SDS011;4624;48.126;11.546;2023-03-01T01:01:22;15.03;;;10.67;;
9178;SDS011;4624;48.126;11.546;2023-03-01T01:03:54;15.23;;;11.17;;
9178;SDS011;4624;48.126;11.546;2023-03-01T01:06:22;15.23;;;10.83;;
9178;SDS011;4624;48.126;11.546;2023-03-01T01:08:51;14.97;;;10.97;;
9178;SDS011;4624;48.126;11.546;2023-03-01T01:11:19;14.90;;;10.57;;
9178;SDS011;4624;48.126;11.546;2023-03-01T01:13:47;12.97;;;10.27;;
9178;SDS011;4624;48.126;11.546;2023-03-01T01:16:15;12.63;;;10.40;;
9178;SDS011;4624;48.126;11.546;2023-03-01T01:18:43;14.17;;;11.13;;
9178;SDS011;4624;48.126;11.546;2023-03-01T01:21:13;13.17;;;10.50;;
9178;SDS011;4624;48.126;11.546;2023-03-01T01:23:41;14.97;;;11.10;;
9178;SDS011;4624;48.126;11.546;2023-03-01T01:26:10;12.47;;;10.03;;
9178;SDS011;4624;48.126;11.546;2023-03-01T01:28:39;14.17;;;10.50;;
9178;SDS011;4624;48.126;11.546;2023-03-01T01:31:06;15.27;;;10.97;;
9178;SDS011;4624;48.126;11.546;2023-03-01T01:33:33;14.83;;;10.47;;
9178;SDS011;4624;48.126;11.546;2023-03-01T01:36:00;14.37;;;10.63;;
9178;SDS011;4624;48.126;11.546;2023-03-01T01:38:28;14.03;;;10.43;;
9178;SDS011;4624;48.126;11.546;2023-03-01T01:40:55;15.90;;;11.47;;
9178;SDS011;4624;48.126;11.546;2023-03-01T01:43:22;15.97;;;10.70;;
9178;SDS011;4624;48.126;11.546;2023-03-01T01:45:50;13.30;;;10.43;;
9178;SDS011;4624;48.126;11.546;2023-03-01T01:48:20;14.27;;;10.43;;
9178;SDS011;4624;48.126;11.546;2023-03-01T01:50:51;13.07;;;10.73;;
9178;SDS011;4624;48.126;11.546;2023-03-01T01:53:23;13.27;;;10.43;;
9178;SDS011;4624;48.126;11.546;2023-03-01T01:55:53;12.20;;;10.03;;
9178;SDS011;4624;48.126;11.546;2023-03-01T01:58:22;14.77;;;10.97;;
9178;SDS011;4624;48.126;11.546;2023-03-01T02:00:51;14.87;;;10.90;;
9178;SDS011;4624;48.126;11.546;2023-03-01T02:03:19;13.37;;;10.70;;
9178;SDS011;4624;48.126;11.546;2023-03-01T02:05:50;14.33;;;10.70;;
9178;SDS011;4624;48.126;11.546;2023-03-01T02:08:21;12.00;;;9.43;;
9178;SDS011;4624;48.126;11.546;2023-03-01T02:10:52;14.03;;;11.17;;
9178;SDS011;4624;48.126;11.546;2023-03-01T02:13:20;17.27;;;11.20;;
9178;SDS011;4624;48.126;11.546;2023-03-01T02:15:47;14.70;;;10.87;;
9178;SDS011;4624;48.126;11.546;2023-03-01T02:18:16;11.67;;;10.20;;
9178;SDS011;4624;48.126;11.546;2023-03-01T02:20:49;13.67;;;10.37;;
9178;SDS011;4624;48.126;11.546;2023-03-01T02:23:24;15.33;;;10.80;;
9178;SDS011;4624;48.126;11.546;2023-03-01T02:25:54;15.60;;;10.83;;
9178;SDS011;4624;48.126;11.546;2023-03-01T02:28:27;15.87;;;10.80;;
9178;SDS011;4624;48.126;11.546;2023-03-01T02:30:56;13.17;;;10.67;;
9178;SDS011;4624;48.126;11.546;2023-03-01T02:33:41;14.90;;;10.20;;
9178;SDS011;4624;48.126;11.546;2023-03-01T02:36:10;12.97;;;10.63;;
9178;SDS011;4624;48.126;11.546;2023-03-01T02:38:40;15.53;;;10.70;;
9178;SDS011;4624;48.126;11.546;2023-03-01T02:41:07;17.27;;;11.30;;
9178;SDS011;4624;48.126;11.546;2023-03-01T02:43:39;12.87;;;10.43;;
9178;SDS011;4624;48.126;11.546;2023-03-01T02:46:07;16.43;;;11.77;;
9178;SDS011;4624;48.126;11.546;2023-03-01T02:48:39;15.10;;;11.57;;
9178;SDS011;4624;48.126;11.546;2023-03-01T02:51:09;14.17;;;10.23;;
9178;SDS011;4624;48.126;11.546;2023-03-01T02:53:45;14.17;;;10.67;;
9178;SDS011;4624;48.126;11.546;2023-03-01T02:56:19;15.23;;;10.53;;
9178;SDS011;4624;48.126;11.546;2023-03-01T02:58:48;14.33;;;10.73;;
9178;SDS011;4624;48.126;11.546;2023-03-01T03:01:16;15.20;;;11.67;;
9178;SDS011;4624;48.126;11.546;2023-03-01T03:03:43;14.60;;;10.27;;
9178;SDS011;4624;48.126;11.546;2023-03-01T03:06:11;12.30;;;10.13;;
9178;SDS011;4624;48.126;11.546;2023-03-01T03:08:38;14.10;;;11.20;;
9178;SDS011;4624;48.126;11.546;2023-03-01T03:11:05;13.70;;;10.53;;
9178;SDS011;4624;48.126;11.546;2023-03-01T03:13:32;18.63;;;11.53;;
9178;SDS011;4624;48.126;11.546;2023-03-01T03:16:00;13.43;;;10.20;;
9178;SDS011;4624;48.126;11.546;2023-03-01T03:18:29;12.47;;;10.63;;
9178;SDS011;4624;48.126;11.546;2023-03-01T03:20:56;13.27;;;10.30;;
9178;SDS011;4624;48.126;11.546;2023-03-01T03:23:22;13.67;;;9.93;;
9178;SDS011;4624;48.126;11.546;2023-03-01T03:25:50;13.33;;;10.10;;
9178;SDS011;4624;48.126;11.546;2023-03-01T03:28:17;14.83;;;10.17;;
9178;SDS011;4624;48.126;11.546;2023-03-01T03:30:44;13.43;;;10.63;;
9178;SDS011;4624;48.126;11.546;2023-03-01T03:33:13;14.80;;;10.83;;
9178;SDS011;4624;48.126;11.546;2023-03-01T03:35:40;13.60;;;10.43;;
9178;SDS011;4624;48.126;11.546;2023-03-01T03:38:09;16.20;;;11.37;;
9178;SDS011;4624;48.126;11.546;2023-03-01T03:40:42;12.80;;;10.90;;
9178;SDS011;4624;48.126;11.546;2023-03-01T03:43:10;13.27;;;10.57;;
9178;SDS011;4624;48.126;11.546;2023-03-01T03:45:38;13.77;;;10.80;;
9178;SDS011;4624;48.126;11.546;2023-03-01T03:48:07;18.20;;;11.40;;
9178;SDS011;4624;48.126;11.546;2023-03-01T03:50:37;13.97;;;10.73;;
9178;SDS011;4624;48.126;11.546;2023-03-01T03:53:05;14.13;;;11.37;;
9178;SDS011;4624;48.126;11.546;2023-03-01T03:55:33;12.67;;;10.70;;
9178;SDS011;4624;48.126;11.546;2023-03-01T03:58:04;13.77;;;10.83;;
9178;SDS011;4624;48.126;11.546;2023-03-01T04:00:33;12.73;;;11.10;;
9178;SDS011;4624;48.126;11.546;2023-03-01T04:03:00;14.57;;;10.73;;
9178;SDS011;4624;48.126;11.546;2023-03-01T04:05:27;13.83;;;11.63;;
9178;SDS011;4624;48.126;11.546;2023-03-01T04:07:56;12.67;;;11.20;;
9178;SDS011;4624;48.126;11.546;2023-03-01T04:10:32;14.10;;;11.33;;
9178;SDS011;4624;48.126;11.546;2023-03-01T04:13:01;14.97;;;11.43;;
9178;SDS011;4624;48.126;11.546;2023-03-01T04:15:27;12.83;;;10.87;;
9178;SDS011;4624;48.126;11.546;2023-03-01T04:17:54;17.03;;;11.93;;
9178;SDS011;4624;48.126;11.546;2023-03-01T04:20:22;15.13;;;12.20;;
9178;SDS011;4624;48.126;11.546;2023-03-01T04:22:51;15.67;;;10.97;;
9178;SDS011;4624;48.126;11.546;2023-03-01T04:25:20;15.13;;;11.53;;
9178;SDS011;4624;48.126;11.546;2023-03-01T04:27:47;15.23;;;11.77;;
9178;SDS011;4624;48.126;11.546;2023-03-01T04:30:13;15.43;;;11.47;;
9178;SDS011;4624;48.126;11.546;2023-03-01T04:32:41;18.77;;;12.67;;
9178;SDS011;4624;48.126;11.546;2023-03-01T04:35:08;13.93;;;10.83;;
9178;SDS011;4624;48.126;11.546;2023-03-01T04:37:35;14.40;;;11.70;;
9178;SDS011;4624;48.126;11.546;2023-03-01T04:40:02;14.87;;;11.50;;
9178;SDS011;4624;48.126;11.546;2023-03-01T04:42:40;14.43;;;10.83;;
9178;SDS011;4624;48.126;11.546;2023-03-01T04:45:07;14.17;;;11.37;;
9178;SDS011;4624;48.126;11.546;2023-03-01T04:47:38;13.13;;;10.73;;
9178;SDS011;4624;48.126;11.546;2023-03-01T04:50:05;15.23;;;11.43;;
9178;SDS011;4624;48.126;11.546;2023-03-01T04:52:33;15.00;;;10.87;;
9178;SDS011;4624;48.126;11.546;2023-03-01T04:55:00;13.57;;;10.90;;
9178;SDS011;4624;48.126;11.546;2023-03-01T04:57:28;17.13;;;11.87;;
9178;SDS011;4624;48.126;11.546;2023-03-01T04:59:56;12.90;;;10.87;;
9178;SDS011;4624;48.126;11.546;2023-03-01T05:02:23;15.50;;;11.27;;
9178;SDS011;4624;48.126;11.546;2023-03-01T05:04:50;15.27;;;11.90;;
9178;SDS011;4624;48.126;11.546;2023-03-01T05:07:17;15.03;;;11.57;;
9178;SDS011;4624;48.126;11.546;2023-03-01T05:09:45;15.77;;;11.27;;
9178;SDS011;4624;48.126;11.546;2023-03-01T05:12:12;15.23;;;11.40;;
9178;SDS011;4624;48.126;11.546;2023-03-01T05:14:39;14.43;;;10.63;;
9178;SDS011;4624;48.126;11.546;2023-03-01T05:17:08;14.73;;;11.20;;
9178;SDS011;4624;48.126;11.546;2023-03-01T05:19:35;13.80;;;10.80;;
9178;SDS011;4624;48.126;11.546;2023-03-01T05:22:01;16.57;;;11.23;;
9178;SDS011;4624;48.126;11.546;2023-03-01T05:24:30;15.57;;;11.70;;
9178;SDS011;4624;48.126;11.546;2023-03-01T05:26:58;16.03;;;10.83;;
9178;SDS011;4624;48.126;11.546;2023-03-01T05:29:26;14.30;;;11.27;;
9178;SDS011;4624;48.126;11.546;2023-03-01T05:31:55;15.23;;;12.27;;
9178;SDS011;4624;48.126;11.546;2023-03-01T05:34:25;15.80;;;12.07;;
9178;SDS011;4624;48.126;11.546;2023-03-01T05:36:53;15.10;;;11.53;;
9178;SDS011;4624;48.126;11.546;2023-03-01T05:39:21;15.60;;;11.57;;
9178;SDS011;4624;48.126;11.546;2023-03-01T05:41:48;12.37;;;10.97;;
9178;SDS011;4624;48.126;11.546;2023-03-01T05:44:19;15.53;;;11.00;;
9178;SDS011;4624;48.126;11.546;2023-03-01T05:46:46;14.97;;;12.10;;
9178;SDS011;4624;48.126;11.546;2023-03-01T05:49:13;14.63;;;11.60;;
9178;SDS011;4624;48.126;11.546;2023-03-01T05:51:41;13.83;;;10.80;;
9178;SDS011;4624;48.126;11.546;2023-03-01T05:54:08;15.93;;;11.80;;
9178;SDS011;4624;48.126;11.546;2023-03-01T05:56:36;14.53;;;11.13;;
9178;SDS011;4624;48.126;11.546;2023-03-01T05:59:03;17.27;;;12.27;;
9178;SDS011;4624;48.126;11.546;2023-03-01T06:01:31;16.37;;;11.57;;
9178;SDS011;4624;48.126;11.546;2023-03-01T06:03:57;14.60;;;10.83;;
9178;SDS011;4624;48.126;11.546;2023-03-01T06:06:24;13.53;;;11.00;;
9178;SDS011;4624;48.126;11.546;2023-03-01T06:08:53;16.90;;;11.87;;
9178;SDS011;4624;48.126;11.546;2023-03-01T06:11:20;18.80;;;11.13;;
9178;SDS011;4624;48.126;11.546;2023-03-01T06:13:47;17.00;;;12.00;;
9178;SDS011;4624;48.126;11.546;2023-03-01T06:16:14;15.60;;;11.77;;
9178;SDS011;4624;48.126;11.546;2023-03-01T06:18:41;16.90;;;11.70;;
9178;SDS011;4624;48.126;11.546;2023-03-01T06:21:08;15.57;;;11.77;;
9178;SDS011;4624;48.126;11.546;2023-03-01T06:23:35;15.47;;;11.30;;
9178;SDS011;4624;48.126;11.546;2023-03-01T06:26:06;14.47;;;11.13;;
9178;SDS011;4624;48.126;11.546;2023-03-01T06:28:34;19.03;;;12.20;;
9178;SDS011;4624;48.126;11.546;2023-03-01T06:31:01;14.23;;;11.47;;
9178;SDS011;4624;48.126;11.546;2023-03-01T06:33:28;21.00;;;12.10;;
9178;SDS011;4624;48.126;11.546;2023-03-01T06:35:55;14.37;;;11.23;;
9178;SDS011;4624;48.126;11.546;2023-03-01T06:38:22;18.20;;;12.23;;
9178;SDS011;4624;48.126;11.546;2023-03-01T06:40:51;16.00;;;11.50;;
9178;SDS011;4624;48.126;11.546;2023-03-01T06:43:20;18.53;;;12.33;;
9178;SDS011;4624;48.126;11.546;2023-03-01T06:45:47;17.53;;;12.23;;
9178;SDS011;4624;48.126;11.546;2023-03-01T06:48:14;15.93;;;12.17;;
9178;SDS011;4624;48.126;11.546;2023-03-01T06:50:40;16.27;;;11.50;;
9178;SDS011;4624;48.126;11.546;2023-03-01T06:53:07;18.33;;;12.80;;
9178;SDS011;4624;48.126;11.546;2023-03-01T06:55:34;16.50;;;12.67;;
9178;SDS011;4624;48.126;11.546;2023-03-01T06:58:01;18.30;;;11.37;;
9178;SDS011;4624;48.126;11.546;2023-03-01T07:00:30;16.20;;;11.67;;
9178;SDS011;4624;48.126;11.546;2023-03-01T07:02:58;18.37;;;11.77;;
9178;SDS011;4624;48.126;11.546;2023-03-01T07:05:26;17.10;;;12.63;;
9178;SDS011;4624;48.126;11.546;2023-03-01T07:07:53;14.07;;;11.20;;
9178;SDS011;4624;48.126;11.546;2023-03-01T07:10:21;18.07;;;11.77;;
9178;SDS011;4624;48.126;11.546;2023-03-01T07:12:48;14.00;;;10.90;;
9178;SDS011;4624;48.126;11.546;2023-03-01T07:15:14;16.13;;;12.43;;
9178;SDS011;4624;48.126;11.546;2023-03-01T07:17:42;18.63;;;11.90;;
9178;SDS011;4624;48.126;11.546;2023-03-01T07:20:12;14.67;;;11.20;;
9178;SDS011;4624;48.126;11.546;2023-03-01T07:22:39;17.53;;;11.77;;
9178;SDS011;4624;48.126;11.546;2023-03-01T07:25:07;16.70;;;11.50;;
9178;SDS011;4624;48.126;11.546;2023-03-01T07:27:34;18.57;;;12.43;;
9178;SDS011;4624;48.126;11.546;2023-03-01T07:30:02;15.83;;;12.27;;
9178;SDS011;4624;48.126;11.546;2023-03-01T07:32:29;17.17;;;11.87;;
9178;SDS011;4624;48.126;11.546;2023-03-01T07:34:57;17.30;;;12.30;;
9178;SDS011;4624;48.126;11.546;2023-03-01T07:37:24;16.30;;;11.73;;
9178;SDS011;4624;48.126;11.546;2023-03-01T07:39:51;16.93;;;12.07;;
9178;SDS011;4624;48.126;11.546;2023-03-01T07:42:17;15.57;;;11.73;;
9178;SDS011;4624;48.126;11.546;2023-03-01T07:44:44;22.07;;;12.77;;
9178;SDS011;4624;48.126;11.546;2023-03-01T07:47:11;18.97;;;13.60;;
9178;SDS011;4624;48.126;11.546;2023-03-01T07:49:38;17.00;;;13.07;;
9178;SDS011;4624;48.126;11.546;2023-03-01T07:52:06;16.03;;;11.70;;
9178;SDS011;4624;48.126;11.546;2023-03-01T07:54:32;17.73;;;12.70;;
9178;SDS011;4624;48.126;11.546;2023-03-01T07:56:59;17.73;;;12.47;;
9178;SDS011;4624;48.126;11.546;2023-03-01T07:59:26;16.80;;;12.07;;
9178;SDS011;4624;48.126;11.546;2023-03-01T08:01:54;24.70;;;12.63;;
9178;SDS011;4624;48.126;11.546;2023-03-01T08:04:21;16.57;;;12.20;;
9178;SDS011;4624;48.126;11.546;2023-03-01T08:06:49;17.07;;;12.20;;
9178;SDS011;4624;48.126;11.546;2023-03-01T08:09:17;18.57;;;12.63;;
9178;SDS011;4624;48.126;11.546;2023-03-01T08:11:44;18.13;;;12.30;;
9178;SDS011;4624;48.126;11.546;2023-03-01T08:14:11;16.83;;;12.30;;
9178;SDS011;4624;48.126;11.546;2023-03-01T08:16:38;18.83;;;12.97;;
9178;SDS011;4624;48.126;11.546;2023-03-01T08:19:05;18.07;;;12.47;;
9178;SDS011;4624;48.126;11.546;2023-03-01T08:21:33;16.70;;;12.13;;
9178;SDS011;4624;48.126;11.546;2023-03-01T08:24:00;17.03;;;12.27;;
9178;SDS011;4624;48.126;11.546;2023-03-01T08:26:29;15.93;;;12.07;;
9178;SDS011;4624;48.126;11.546;2023-03-01T08:28:56;16.43;;;12.10;;
9178;SDS011;4624;48.126;11.546;2023-03-01T08:31:23;14.47;;;11.90;;
9178;SDS011;4624;48.126;11.546;2023-03-01T08:33:54;16.27;;;12.13;;
9178;SDS011;4624;48.126;11.546;2023-03-01T08:36:23;16.60;;;12.43;;
9178;SDS011;4624;48.126;11.546;2023-03-01T08:38:51;18.87;;;13.07;;
9178;SDS011;4624;48.126;11.546;2023-03-01T08:41:18;19.33;;;12.97;;
9178;SDS011;4624;48.126;11.546;2023-03-01T08:43:46;14.93;;;11.60;;
9178;SDS011;4624;48.126;11.546;2023-03-01T08:46:13;16.20;;;12.20;;
9178;SDS011;4624;48.126;11.546;2023-03-01T08:48:40;14.97;;;12.40;;
9178;SDS011;4624;48.126;11.546;2023-03-01T08:51:08;17.93;;;12.90;;
9178;SDS011;4624;48.126;11.546;2023-03-01T08:53:36;17.13;;;12.70;;
9178;SDS011;4624;48.126;11.546;2023-03-01T08:56:04;17.77;;;12.47;;
9178;SDS011;4624;48.126;11.546;2023-03-01T08:58:31;19.63;;;12.50;;
9178;SDS011;4624;48.126;11.546;2023-03-01T09:00:59;17.63;;;12.40;;
9178;SDS011;4624;48.126;11.546;2023-03-01T09:03:26;17.87;;;12.50;;
9178;SDS011;4624;48.126;11.546;2023-03-01T09:05:53;17.40;;;12.20;;
9178;SDS011;4624;48.126;11.546;2023-03-01T09:08:26;15.70;;;11.63;;
9178;SDS011;4624;48.126;11.546;2023-03-01T09:10:53;21.17;;;12.77;;
9178;SDS011;4624;48.126;11.546;2023-03-01T09:13:20;18.40;;;12.33;;
9178;SDS011;4624;48.126;11.546;2023-03-01T09:15:48;19.40;;;11.90;;
9178;SDS011;4624;48.126;11.546;2023-03-01T09:18:16;18.73;;;11.97;;
9178;SDS011;4624;48.126;11.546;2023-03-01T09:20:43;19.47;;;12.87;;
9178;SDS011;4624;48.126;11.546;2023-03-01T09:23:10;19.23;;;13.23;;
9178;SDS011;4624;48.126;11.546;2023-03-01T09:25:37;19.93;;;12.87;;
9178;SDS011;4624;48.126;11.546;2023-03-01T09:28:03;16.93;;;12.80;;
9178;SDS011;4624;48.126;11.546;2023-03-01T09:30:30;17.33;;;12.27;;
9178;SDS011;4624;48.126;11.546;2023-03-01T09:32:57;17.80;;;12.83;;
9178;SDS011;4624;48.126;11.546;2023-03-01T09:35:25;15.90;;;12.77;;
9178;SDS011;4624;48.126;11.546;2023-03-01T09:37:53;20.93;;;12.63;;
9178;SDS011;4624;48.126;11.546;2023-03-01T09:40:20;18.17;;;13.03;;
9178;SDS011;4624;48.126;11.546;2023-03-01T09:42:51;18.27;;;13.70;;
9178;SDS011;4624;48.126;11.546;2023-03-01T09:45:25;17.77;;;12.17;;
9178;SDS011;4624;48.126;11.546;2023-03-01T09:47:54;16.80;;;13.10;;
9178;SDS011;4624;48.126;11.546;2023-03-01T09:50:22;18.97;;;13.67;;
9178;SDS011;4624;48.126;11.546;2023-03-01T09:52:53;20.03;;;12.97;;
9178;SDS011;4624;48.126;11.546;2023-03-01T09:55:26;17.40;;;13.17;;
9178;SDS011;4624;48.126;11.546;2023-03-01T09:57:59;18.30;;;13.03;;
9178;SDS011;4624;48.126;11.546;2023-03-01T10:00:35;17.00;;;12.27;;
9178;SDS011;4624;48.126;11.546;2023-03-01T10:03:10;16.90;;;11.87;;
9178;SDS011;4624;48.126;11.546;2023-03-01T10:05:50;14.83;;;12.07;;
9178;SDS011;4624;48.126;11.546;2023-03-01T10:08:35;17.57;;;13.30;;
9178;SDS011;4624;48.126;11.546;2023-03-01T10:11:12;17.97;;;12.57;;
9178;SDS011;4624;48.126;11.546;2023-03-01T10:13:47;19.30;;;12.47;;
9178;SDS011;4624;48.126;11.546;2023-03-01T10:16:20;17.77;;;13.00;;
9178;SDS011;4624;48.126;11.546;2023-03-01T10:18:51;17.00;;;13.23;;
9178;SDS011;4624;48.126;11.546;2023-03-01T10:21:21;18.63;;;13.00;;
9178;SDS011;4624;48.126;11.546;2023-03-01T10:23:50;20.60;;;11.93;;
9178;SDS011;4624;48.126;11.546;2023-03-01T10:26:23;17.83;;;12.43;;
9178;SDS011;4624;48.126;11.546;2023-03-01T10:29:02;15.60;;;12.03;;
9178;SDS011;4624;48.126;11.546;2023-03-01T10:31:36;17.87;;;12.80;;
9178;SDS011;4624;48.126;11.546;2023-03-01T10:34:08;16.67;;;12.70;;
9178;SDS011;4624;48.126;11.546;2023-03-01T10:36:38;18.17;;;13.53;;
9178;SDS011;4624;48.126;11.546;2023-03-01T10:39:12;18.07;;;12.87;;
9178;SDS011;4624;48.126;11.546;2023-03-01T10:41:54;20.83;;;13.43;;
9178;SDS011;4624;48.126;11.546;2023-03-01T10:44:40;19.67;;;13.27;;
9178;SDS011;4624;48.126;11.546;2023-03-01T10:47:13;16.93;;;13.27;;
9178;SDS011;4624;48.126;11.546;2023-03-01T10:52:44;20.87;;;14.47;;
9178;SDS011;4624;48.126;11.546;2023-03-01T10:55:26;15.77;;;12.63;;
9178;SDS011;4624;48.126;11.546;2023-03-01T10:58:06;20.97;;;13.50;;
9178;SDS011;4624;48.126;11.546;2023-03-01T11:00:45;16.90;;;13.23;;
9178;SDS011;4624;48.126;11.546;2023-03-01T11:03:15;16.23;;;12.43;;
9178;SDS011;4624;48.126;11.546;2023-03-01T11:05:52;17.63;;;13.07;;
9178;SDS011;4624;48.126;11.546;2023-03-01T11:08:40;19.77;;;13.53;;
9178;SDS011;4624;48.126;11.546;2023-03-01T11:11:20;17.27;;;14.17;;
9178;SDS011;4624;48.126;11.546;2023-03-01T11:13:56;23.13;;;13.67;;
9178;SDS011;4624;48.126;11.546;2023-03-01T11:16:26;16.00;;;12.67;;
9178;SDS011;4624;48.126;11.546;2023-03-01T11:19:13;16.73;;;12.93;;
9178;SDS011;4624;48.126;11.546;2023-03-01T11:21:55;14.60;;;12.03;;
9178;SDS011;4624;48.126;11.546;2023-03-01T11:24:30;14.73;;;12.03;;
9178;SDS011;4624;48.126;11.546;2023-03-01T11:27:03;16.20;;;13.03;;
9178;SDS011;4624;48.126;11.546;2023-03-01T11:29:35;16.77;;;13.20;;
9178;SDS011;4624;48.126;11.546;2023-03-01T11:32:06;16.40;;;13.90;;
9178;SDS011;4624;48.126;11.546;2023-03-01T11:34:37;16.20;;;13.70;;
9178;SDS011;4624;48.126;11.546;2023-03-01T11:37:10;16.60;;;13.90;;
9178;SDS011;4624;48.126;11.546;2023-03-01T11:39:51;15.53;;;13.43;;
9178;SDS011;4624;48.126;11.546;2023-03-01T11:42:28;16.50;;;13.83;;
9178;SDS011;4624;48.126;11.546;2023-03-01T11:45:06;17.90;;;13.63;;
9178;SDS011;4624;48.126;11.546;2023-03-01T11:47:45;14.40;;;12.87;;
9178;SDS011;4624;48.126;11.546;2023-03-01T11:50:27;16.37;;;13.63;;
9178;SDS011;4624;48.126;11.546;2023-03-01T11:56:03;14.97;;;13.37;;
9178;SDS011;4624;48.126;11.546;2023-03-01T11:58:43;16.90;;;13.47;;
9178;SDS011;4624;48.126;11.546;2023-03-01T12:01:25;14.97;;;13.47;;
9178;SDS011;4624;48.126;11.546;2023-03-01T12:04:17;15.53;;;13.83;;
9178;SDS011;4624;48.126;11.546;2023-03-01T12:06:59;14.87;;;13.07;;
9178;SDS011;4624;48.126;11.546;2023-03-01T12:09:31;17.73;;;13.63;;
9178;SDS011;4624;48.126;11.546;2023-03-01T12:12:12;16.90;;;13.40;;
9178;SDS011;4624;48.126;11.546;2023-03-01T12:14:54;15.90;;;13.63;;
9178;SDS011;4624;48.126;11.546;2023-03-01T12:17:33;15.90;;;12.87;;
9178;SDS011;4624;48.126;11.546;2023-03-01T12:20:14;15.60;;;13.67;;
9178;SDS011;4624;48.126;11.546;2023-03-01T12:22:58;16.20;;;13.60;;
9178;SDS011;4624;48.126;11.546;2023-03-01T12:25:43;15.43;;;13.83;;
9178;SDS011;4624;48.126;11.546;2023-03-01T12:28:30;14.87;;;13.17;;
9178;SDS011;4624;48.126;11.546;2023-03-01T12:34:07;15.53;;;13.87;;
9178;SDS011;4624;48.126;11.546;2023-03-01T12:36:51;16.27;;;14.10;;
9178;SDS011;4624;48.126;11.546;2023-03-01T12:39:34;13.37;;;11.47;;
9178;SDS011;4624;48.126;11.546;2023-03-01T12:42:17;15.00;;;13.13;;
9178;SDS011;4624;48.126;11.546;2023-03-01T12:44:57;14.83;;;13.33;;
9178;SDS011;4624;48.126;11.546;2023-03-01T12:47:47;16.73;;;14.03;;
9178;SDS011;4624;48.126;11.546;2023-03-01T12:50:25;16.03;;;14.33;;
9178;SDS011;4624;48.126;11.546;2023-03-01T12:53:04;15.10;;;13.20;;
9178;SDS011;4624;48.126;11.546;2023-03-01T12:55:32;18.60;;;14.23;;
9178;SDS011;4624;48.126;11.546;2023-03-01T12:58:06;15.60;;;13.70;;
9178;SDS011;4624;48.126;11.546;2023-03-01T13:00:52;15.20;;;13.60;;
9178;SDS011;4624;48.126;11.546;2023-03-01T13:03:31;15.23;;;13.33;;
9178;SDS011;4624;48.126;11.546;2023-03-01T13:06:08;16.87;;;12.67;;
9178;SDS011;4624;48.126;11.546;2023-03-01T13:08:42;16.17;;;14.30;;
9178;SDS011;4624;48.126;11.546;2023-03-01T13:11:16;15.73;;;12.43;;
9178;SDS011;4624;48.126;11.546;2023-03-01T13:13:45;15.67;;;12.77;;
9178;SDS011;4624;48.126;11.546;2023-03-01T13:16:21;16.70;;;13.97;;
9178;SDS011;4624;48.126;11.546;2023-03-01T13:19:12;16.03;;;12.90;;
9178;SDS011;4624;48.126;11.546;2023-03-01T13:21:41;16.00;;;13.83;;
9178;SDS011;4624;48.126;11.546;2023-03-01T13:24:23;16.30;;;13.90;;
9178;SDS011;4624;48.126;11.546;2023-03-01T13:27:08;15.77;;;13.27;;
9178;SDS011;4624;48.126;11.546;2023-03-01T13:29:43;18.83;;;14.70;;
9178;SDS011;4624;48.126;11.546;2023-03-01T13:32:18;18.03;;;14.87;;
9178;SDS011;4624;48.126;11.546;2023-03-01T13:37:55;19.33;;;14.23;;
9178;SDS011;4624;48.126;11.546;2023-03-01T13:41:08;16.43;;;13.33;;
9178;SDS011;4624;48.126;11.546;2023-03-01T13:43:35;14.87;;;13.27;;
9178;SDS011;4624;48.126;11.546;2023-03-01T13:46:07;16.53;;;14.10;;
9178;SDS011;4624;48.126;11.546;2023-03-01T13:48:37;15.60;;;13.77;;
9178;SDS011;4624;48.126;11.546;2023-03-01T13:51:06;20.47;;;14.73;;
9178;SDS011;4624;48.126;11.546;2023-03-01T13:53:38;18.60;;;14.60;;
9178;SDS011;4624;48.126;11.546;2023-03-01T13:56:08;18.13;;;14.60;;
9178;SDS011;4624;48.126;11.546;2023-03-01T13:58:44;18.60;;;14.57;;
9178;SDS011;4624;48.126;11.546;2023-03-01T14:01:20;18.57;;;14.03;;
9178;SDS011;4624;48.126;11.546;2023-03-01T14:03:48;17.27;;;14.37;;
9178;SDS011;4624;48.126;11.546;2023-03-01T14:06:16;17.73;;;14.53;;
9178;SDS011;4624;48.126;11.546;2023-03-01T14:08:48;20.87;;;14.43;;
9178;SDS011;4624;48.126;11.546;2023-03-01T14:11:21;21.43;;;14.33;;
9178;SDS011;4624;48.126;11.546;2023-03-01T14:16:50;17.37;;;13.70;;
9178;SDS011;4624;48.126;11.546;2023-03-01T14:19:27;20.83;;;15.73;;
9178;SDS011;4624;48.126;11.546;2023-03-01T14:21:59;18.93;;;14.23;;
9178;SDS011;4624;48.126;11.546;2023-03-01T14:24:31;19.17;;;14.37;;
9178;SDS011;4624;48.126;11.546;2023-03-01T14:27:01;17.80;;;14.33;;
9178;SDS011;4624;48.126;11.546;2023-03-01T14:29:33;18.93;;;14.40;;
9178;SDS011;4624;48.126;11.546;2023-03-01T14:32:11;17.20;;;12.87;;
9178;SDS011;4624;48.126;11.546;2023-03-01T14:34:45;20.03;;;14.33;;
9178;SDS011;4624;48.126;11.546;2023-03-01T14:37:21;19.10;;;14.30;;
9178;SDS011;4624;48.126;11.546;2023-03-01T14:39:51;18.53;;;13.90;;
9178;SDS011;4624;48.126;11.546;2023-03-01T14:42:19;19.67;;;14.70;;
9178;SDS011;4624;48.126;11.546;2023-03-01T14:44:48;22.23;;;14.03;;
9178;SDS011;4624;48.126;11.546;2023-03-01T14:47:20;17.90;;;12.50;;
9178;SDS011;4624;48.126;11.546;2023-03-01T14:49:54;16.20;;;13.20;;
9178;SDS011;4624;48.126;11.546;2023-03-01T14:52:25;18.47;;;12.97;;
9178;SDS011;4624;48.126;11.546;2023-03-01T14:55:01;18.27;;;13.20;;
9178;SDS011;4624;48.126;11.546;2023-03-01T14:57:31;20.10;;;12.77;;
9178;SDS011;4624;48.126;11.546;2023-03-01T14:59:58;18.27;;;12.87;;
9178;SDS011;4624;48.126;11.546;2023-03-01T15:02:29;19.77;;;13.30;;
9178;SDS011;4624;48.126;11.546;2023-03-01T15:04:58;18.03;;;13.23;;
9178;SDS011;4624;48.126;11.546;2023-03-01T15:07:28;18.23;;;12.67;;
9178;SDS011;4624;48.126;11.546;2023-03-01T15:09:57;16.97;;;13.27;;